createdAt,value
2018-05-23T14:10:58.728Z,2.13
2018-05-23T14:13:26.680Z,1.67
2018-05-23T14:15:53.289Z,1.97
2018-05-23T14:18:19.858Z,2.20
2018-05-23T14:20:46.453Z,2.90
2018-05-23T14:23:13.949Z,2.30
2018-05-23T14:25:41.805Z,1.83
2018-05-23T14:28:08.755Z,2.50
2018-05-23T14:30:35.484Z,2.30
2018-05-23T14:33:02.087Z,1.97
2018-05-23T14:35:28.689Z,2.30
2018-05-23T14:37:56.216Z,2.27
2018-05-23T14:40:23.185Z,2.50
2018-05-23T14:42:50.629Z,1.83
2018-05-23T14:45:17.276Z,2.33
2018-05-23T14:47:45.421Z,1.80
2018-05-23T14:50:12.023Z,1.90
2018-05-23T14:52:41.940Z,2.30
2018-05-23T14:55:08.892Z,2.00
2018-05-23T14:57:37.071Z,1.80
2018-05-23T15:00:05.303Z,2.13
2018-05-23T15:02:32.693Z,2.53
2018-05-23T15:04:59.303Z,2.07
2018-05-23T15:07:26.188Z,2.40
2018-05-23T15:09:54.623Z,2.37
2018-05-23T15:12:21.840Z,2.40
2018-05-23T15:14:48.764Z,1.97
2018-05-23T15:17:24.122Z,2.57
2018-05-23T15:19:52.419Z,2.03
2018-05-23T15:22:21.972Z,1.77
2018-05-23T15:24:50.497Z,2.30
2018-05-23T15:27:17.960Z,1.50
2018-05-23T15:29:45.188Z,2.30
2018-05-23T15:32:11.673Z,2.03
2018-05-23T15:34:38.596Z,1.97
2018-05-23T15:37:05.997Z,1.80
2018-05-23T15:39:33.382Z,2.23
2018-05-23T15:42:00.561Z,2.30
2018-05-23T15:44:28.338Z,1.90
2018-05-23T15:46:55.012Z,2.33
2018-05-23T15:49:21.832Z,2.57
2018-05-23T15:51:49.175Z,2.23
2018-05-23T15:54:17.621Z,2.20
2018-05-23T15:56:44.464Z,2.00
2018-05-23T15:59:11.805Z,2.50
2018-05-23T16:01:38.726Z,2.20
2018-05-23T16:04:07.288Z,2.13
2018-05-23T16:06:33.697Z,2.20
2018-05-23T16:09:00.149Z,2.00
2018-05-23T16:11:28.188Z,2.00
2018-05-23T16:13:54.816Z,2.20
2018-05-23T16:16:21.355Z,2.17
2018-05-23T16:18:48.782Z,2.30
2018-05-23T16:21:16.593Z,1.90
2018-05-23T16:23:43.800Z,2.40
2018-05-23T16:26:10.315Z,2.50
2018-05-23T16:28:38.529Z,2.27
2018-05-23T16:31:05.086Z,2.50
2018-05-23T16:33:32.379Z,3.30
2018-05-23T16:35:58.915Z,3.40
2018-05-23T16:38:28.636Z,4.00
2018-05-23T16:40:56.230Z,2.67
2018-05-23T16:43:23.838Z,3.07
2018-05-23T16:45:52.281Z,2.50
2018-05-23T16:48:20.563Z,2.67
2018-05-23T16:50:47.116Z,2.70
2018-05-23T16:53:13.938Z,2.23
2018-05-23T16:55:40.920Z,2.40
2018-05-23T16:58:10.327Z,2.63
2018-05-23T17:00:39.637Z,2.00
2018-05-23T17:03:07.772Z,2.03
2018-05-23T17:05:34.807Z,2.17
2018-05-23T17:08:01.692Z,2.60
2018-05-23T17:10:29.199Z,2.30
2018-05-23T17:12:55.943Z,2.13
2018-05-23T17:15:23.871Z,2.30
2018-05-23T17:17:52.185Z,2.10
2018-05-23T17:20:18.823Z,2.07
2018-05-23T17:22:45.585Z,2.10
2018-05-23T17:25:12.982Z,2.03
2018-05-23T17:27:41.071Z,2.13
2018-05-23T17:30:07.652Z,2.00
2018-05-23T17:32:34.313Z,2.53
2018-05-23T17:35:01.553Z,2.60
2018-05-23T17:37:30.028Z,2.40
2018-05-23T17:39:56.532Z,2.27
2018-05-23T17:42:23.194Z,2.33
2018-05-23T17:44:49.652Z,2.50
2018-05-23T17:47:16.683Z,2.27
2018-05-23T17:49:44.185Z,2.03
2018-05-23T17:52:11.591Z,2.20
2018-05-23T17:54:38.541Z,2.70
2018-05-23T17:57:05.900Z,2.20
2018-05-23T17:59:32.321Z,1.90
2018-05-23T18:01:58.841Z,2.10
2018-05-23T18:04:26.114Z,2.03
2018-05-23T18:06:52.818Z,2.70
2018-05-23T18:09:21.029Z,1.60
2018-05-23T18:11:47.961Z,2.17
2018-05-23T18:14:15.651Z,2.13
2018-05-23T18:16:44.293Z,2.40
2018-05-23T18:19:10.900Z,2.30
2018-05-23T18:21:37.385Z,2.00
2018-05-23T18:24:04.094Z,2.57
2018-05-23T18:26:31.610Z,2.30
2018-05-23T18:28:58.049Z,2.30
2018-05-23T18:31:24.495Z,2.30
2018-05-23T18:33:52.157Z,2.27
2018-05-23T18:36:18.876Z,2.10
2018-05-23T18:38:45.837Z,2.50
2018-05-23T18:41:12.392Z,2.10
2018-05-23T18:43:40.197Z,2.20
2018-05-23T18:46:07.042Z,2.20
2018-05-23T18:48:34.546Z,2.30
2018-05-23T18:51:01.904Z,3.00
2018-05-23T18:53:28.418Z,2.47
2018-05-23T18:55:55.689Z,2.60
2018-05-23T18:58:22.896Z,2.20
2018-05-23T19:00:49.884Z,2.10
2018-05-23T19:03:16.479Z,2.30
2018-05-23T19:05:43.353Z,2.50
2018-05-23T19:08:10.320Z,2.30
2018-05-23T19:10:38.637Z,2.20
2018-05-23T19:13:05.581Z,2.40
2018-05-23T19:15:34.674Z,2.30
2018-05-23T19:18:02.760Z,2.30
2018-05-23T19:20:29.657Z,2.37
2018-05-23T19:22:56.244Z,2.60
2018-05-23T19:25:22.776Z,2.63
2018-05-23T19:27:49.819Z,2.03
2018-05-23T19:30:17.191Z,2.90
2018-05-23T19:32:46.368Z,2.23
2018-05-23T19:35:14.100Z,2.40
2018-05-23T19:37:45.135Z,2.13
2018-05-23T19:40:12.090Z,2.30
2018-05-23T19:42:38.661Z,2.80
2018-05-23T19:45:05.142Z,2.53
2018-05-23T19:47:33.019Z,2.73
2018-05-23T19:49:59.879Z,2.27
2018-05-23T19:52:27.631Z,2.20
2018-05-23T19:54:54.505Z,2.97
2018-05-23T19:57:21.738Z,2.53
2018-05-23T19:59:49.973Z,2.80
2018-05-23T20:02:16.875Z,2.37
2018-05-23T20:04:43.349Z,2.87
2018-05-23T20:07:12.152Z,2.70
2018-05-23T20:09:39.057Z,3.13
2018-05-23T20:12:50.676Z,2.73
2018-05-23T20:15:18.755Z,3.17
2018-05-23T20:17:47.633Z,3.37
2018-05-23T20:20:14.210Z,2.83
2018-05-23T20:22:42.496Z,3.10
2018-05-23T20:25:10.399Z,2.93
2018-05-23T20:27:37.122Z,3.13
2018-05-23T20:30:04.065Z,5.37
2018-05-23T20:32:31.020Z,3.97
2018-05-23T20:35:00.768Z,4.50
2018-05-23T20:37:28.519Z,4.00
2018-05-23T20:39:55.865Z,3.57
2018-05-23T20:42:34.374Z,3.50
2018-05-23T20:45:01.707Z,3.80
2018-05-23T20:47:28.231Z,3.73
2018-05-23T20:49:54.861Z,4.17
2018-05-23T20:52:21.453Z,3.10
2018-05-23T20:54:48.341Z,3.90
2018-05-23T20:57:16.258Z,3.97
2018-05-23T20:59:43.143Z,3.10
2018-05-23T21:02:12.783Z,3.23
2018-05-23T21:04:43.833Z,3.60
2018-05-23T21:07:10.346Z,4.00
2018-05-23T21:09:37.592Z,3.97
2018-05-23T21:12:05.163Z,3.60
2018-05-23T21:14:32.906Z,3.83
2018-05-23T21:16:59.349Z,3.60
2018-05-23T21:19:27.295Z,4.00
2018-05-23T21:21:53.743Z,3.83
2018-05-23T21:24:21.317Z,3.27
2018-05-23T21:26:47.812Z,3.57
2018-05-23T21:29:15.005Z,3.70
2018-05-23T21:31:41.442Z,3.63
2018-05-23T21:34:07.857Z,3.53
2018-05-23T21:36:35.132Z,3.50
2018-05-23T21:39:01.608Z,4.40
2018-05-23T21:41:28.364Z,2.90
2018-05-23T21:43:54.760Z,3.13
2018-05-23T21:46:21.129Z,4.10
2018-05-23T21:48:47.598Z,3.73
2018-05-23T21:51:13.997Z,4.70
2018-05-23T21:53:40.484Z,3.80
2018-05-23T21:56:07.398Z,4.67
2018-05-23T21:58:35.101Z,4.00
2018-05-23T22:01:01.555Z,3.00
2018-05-23T22:03:28.814Z,4.10
2018-05-23T22:05:55.374Z,3.60
2018-05-23T22:08:21.901Z,3.60
2018-05-23T22:10:48.447Z,3.23
2018-05-23T22:13:15.058Z,3.53
2018-05-23T22:15:41.900Z,3.50
2018-05-23T22:18:08.780Z,3.80
2018-05-23T22:20:35.269Z,3.33
2018-05-23T22:23:02.134Z,3.50
2018-05-23T22:25:28.562Z,3.40
2018-05-23T22:27:55.804Z,3.40
2018-05-23T22:30:22.234Z,3.13
2018-05-23T22:32:48.929Z,3.50
2018-05-23T22:35:15.423Z,3.00
2018-05-23T22:37:42.072Z,3.60
2018-05-23T22:40:09.605Z,3.80
2018-05-23T22:42:36.145Z,3.30
2018-05-23T22:45:05.232Z,3.90
2018-05-23T22:47:31.809Z,3.33
2018-05-23T22:49:59.107Z,2.83
2018-05-23T22:52:25.715Z,3.40
2018-05-23T22:54:52.540Z,3.37
2018-05-23T22:57:19.065Z,4.00
2018-05-23T22:59:45.646Z,3.50
2018-05-23T23:02:15.424Z,3.13
2018-05-23T23:04:42.419Z,3.50
2018-05-23T23:07:09.981Z,3.53
2018-05-23T23:09:36.511Z,4.23
2018-05-23T23:12:04.585Z,4.27
2018-05-23T23:14:31.144Z,3.37
2018-05-23T23:16:57.593Z,3.30
2018-05-23T23:19:24.012Z,3.67
2018-05-23T23:21:50.389Z,3.80
2018-05-23T23:24:16.984Z,4.20
2018-05-23T23:26:43.439Z,4.37
2018-05-23T23:29:11.031Z,3.30
2018-05-23T23:31:37.760Z,4.20
2018-05-23T23:34:04.202Z,4.07
2018-05-23T23:36:30.634Z,4.37
2018-05-23T23:38:57.333Z,3.73
2018-05-23T23:41:23.756Z,4.07
2018-05-23T23:43:50.466Z,3.83
2018-05-23T23:46:17.724Z,3.30
2018-05-23T23:48:44.234Z,3.53
2018-05-23T23:51:17.785Z,4.10
2018-05-23T23:53:44.217Z,3.47
2018-05-23T23:56:10.765Z,3.57
2018-05-23T23:58:37.351Z,3.73
